createdAt,value
2023-04-11T00:00:08.592Z,5.00
2023-04-11T00:05:35.217Z,4.75
2023-04-11T00:10:57.603Z,4.72
2023-04-11T00:16:21.331Z,4.78
2023-04-11T00:21:45.489Z,4.98
2023-04-11T00:27:07.874Z,4.87
2023-04-11T00:32:30.741Z,4.96
2023-04-11T00:37:54.719Z,4.93
2023-04-11T00:43:17.365Z,4.97
2023-04-11T00:48:40.248Z,4.90
2023-04-11T00:54:03.526Z,4.74
2023-04-11T00:59:25.918Z,4.56
2023-04-11T01:04:48.191Z,4.51
2023-04-11T01:10:15.827Z,4.58
2023-04-11T01:15:38.219Z,4.54
2023-04-11T01:21:00.806Z,4.58
2023-04-11T01:26:23.332Z,4.46
2023-04-11T01:31:45.669Z,4.39
2023-04-11T01:37:08.878Z,4.33
2023-04-11T01:42:32.468Z,4.26
2023-04-11T01:47:55.244Z,4.09
2023-04-11T01:53:17.529Z,4.06
2023-04-11T01:58:39.952Z,4.03
2023-04-11T02:04:02.389Z,4.00
2023-04-11T02:09:24.896Z,3.97
2023-04-11T02:14:53.432Z,4.19
2023-04-11T02:20:17.092Z,4.19
2023-04-11T02:25:39.497Z,4.22
2023-04-11T02:31:02.428Z,4.24
2023-04-11T02:36:25.045Z,4.13
2023-04-11T02:41:47.768Z,3.96
2023-04-11T02:47:11.476Z,4.04
2023-04-11T02:52:34.041Z,4.13
2023-04-11T02:57:56.754Z,4.16
2023-04-11T03:03:19.487Z,4.26
2023-04-11T03:08:42.477Z,4.23
2023-04-11T03:14:04.760Z,4.24
2023-04-11T03:19:27.615Z,4.23
2023-04-11T03:24:50.381Z,4.17
2023-04-11T03:30:13.547Z,3.90
2023-04-11T03:35:36.034Z,3.85
2023-04-11T03:40:58.495Z,3.91
2023-04-11T03:46:21.779Z,3.88
2023-04-11T03:51:44.689Z,3.85
2023-04-11T03:57:06.980Z,3.86
2023-04-11T04:02:29.360Z,3.97
2023-04-11T04:07:53.503Z,4.01
2023-04-11T04:13:15.840Z,4.06
2023-04-11T04:18:38.112Z,4.01
2023-04-11T04:29:35.379Z,4.24
2023-04-11T04:35:09.840Z,4.28
2023-04-11T04:40:33.299Z,4.27
2023-04-11T04:45:55.824Z,4.37
2023-04-11T04:51:18.315Z,4.50
2023-04-11T04:56:42.098Z,4.59
2023-04-11T05:02:04.576Z,4.71
2023-04-11T05:07:27.047Z,4.82
2023-04-11T05:12:49.399Z,4.97
2023-04-11T05:18:12.604Z,5.18
2023-04-11T05:23:34.969Z,5.35
2023-04-11T05:28:57.585Z,5.49
2023-04-11T05:34:21.169Z,5.69
2023-04-11T05:39:43.687Z,5.93
2023-04-11T05:45:06.449Z,6.17
2023-04-11T05:50:29.456Z,6.35
2023-04-11T05:55:51.868Z,6.65
2023-04-11T06:01:16.384Z,6.93
2023-04-11T06:06:39.222Z,7.22
2023-04-11T06:12:02.770Z,7.49
2023-04-11T06:17:25.234Z,7.64
2023-04-11T06:22:49.214Z,7.84
2023-04-11T06:28:11.573Z,8.10
2023-04-11T06:33:34.471Z,8.34
2023-04-11T06:38:56.922Z,8.53
2023-04-11T06:44:19.328Z,8.68
2023-04-11T06:49:42.892Z,8.85
2023-04-11T06:55:08.228Z,9.07
2023-04-11T07:00:32.561Z,9.27
2023-04-11T07:05:54.870Z,9.56
2023-04-11T07:11:19.158Z,9.87
2023-04-11T07:16:42.806Z,10.21
2023-04-11T07:22:05.487Z,10.65
2023-04-11T07:27:29.158Z,10.91
2023-04-11T07:32:51.649Z,11.15
2023-04-11T07:38:16.116Z,11.24
2023-04-11T07:43:54.322Z,11.50
2023-04-11T07:49:20.226Z,11.66
2023-04-11T07:54:42.514Z,11.82
2023-04-11T08:00:06.155Z,12.14
2023-04-11T08:05:28.835Z,12.33
2023-04-11T08:10:52.324Z,12.50
2023-04-11T08:16:17.459Z,12.81
2023-04-11T08:21:41.522Z,12.93
2023-04-11T08:27:04.034Z,13.16
2023-04-11T08:32:26.975Z,13.36
2023-04-11T08:37:50.455Z,13.30
2023-04-11T08:43:21.250Z,13.33
2023-04-11T08:48:44.442Z,13.29
2023-04-11T08:54:15.399Z,13.37
2023-04-11T08:59:40.574Z,13.51
2023-04-11T09:05:03.935Z,13.81
2023-04-11T09:10:39.797Z,13.79
2023-04-11T09:16:26.642Z,13.96
2023-04-11T09:21:58.356Z,14.06
2023-04-11T09:27:31.414Z,14.22
2023-04-11T09:32:53.969Z,14.02
2023-04-11T09:38:18.386Z,14.22
2023-04-11T09:43:42.825Z,14.40
2023-04-11T09:49:07.666Z,14.14
2023-04-11T09:54:33.304Z,14.42
2023-04-11T09:59:58.569Z,14.68
2023-04-11T10:05:24.742Z,14.56
2023-04-11T10:10:49.335Z,14.95
2023-04-11T10:16:32.579Z,15.52
2023-04-11T10:22:04.874Z,15.65
2023-04-11T10:27:45.054Z,15.88
2023-04-11T10:33:28.568Z,16.15
2023-04-11T10:38:56.615Z,15.97
2023-04-11T10:44:33.341Z,16.23
2023-04-11T10:49:57.126Z,15.92
2023-04-11T10:55:29.655Z,15.84
2023-04-11T11:01:31.327Z,15.92
2023-04-11T11:06:54.657Z,15.54
2023-04-11T11:12:29.714Z,15.62
2023-04-11T11:17:54.371Z,15.61
2023-04-11T11:23:18.883Z,15.95
2023-04-11T11:28:42.024Z,15.93
2023-04-11T11:34:22.281Z,15.77
2023-04-11T11:39:29.845Z,15.71
2023-04-11T11:44:52.135Z,15.90
2023-04-11T11:50:15.146Z,15.85
2023-04-11T11:55:40.807Z,16.36
2023-04-11T12:01:05.093Z,16.05
2023-04-11T12:06:28.383Z,16.21
2023-04-11T12:11:53.597Z,15.85
2023-04-11T12:17:16.593Z,16.59
2023-04-11T12:22:39.048Z,17.36
2023-04-11T12:28:02.684Z,16.97
2023-04-11T12:33:25.016Z,15.53
2023-04-11T12:38:47.361Z,16.02
2023-04-11T12:44:10.474Z,15.62
2023-04-11T12:49:32.789Z,15.48
2023-04-11T12:54:55.541Z,15.57
2023-04-11T13:00:18.692Z,15.30
2023-04-11T13:05:41.073Z,15.14
2023-04-11T13:11:03.392Z,15.07
2023-04-11T13:16:25.932Z,14.68
2023-04-11T13:21:48.394Z,14.69
2023-04-11T13:27:10.719Z,14.67
2023-04-11T13:32:33.011Z,14.52
2023-04-11T13:37:55.302Z,14.55
2023-04-11T13:43:18.308Z,14.49
2023-04-11T13:48:41.040Z,14.03
2023-04-11T13:54:03.280Z,13.31
2023-04-11T13:59:26.080Z,13.28
2023-04-11T14:04:48.437Z,13.43
2023-04-11T14:10:11.380Z,13.56
2023-04-11T14:15:33.726Z,13.60
2023-04-11T14:20:58.743Z,13.58
2023-04-11T14:26:21.090Z,13.51
2023-04-11T14:31:43.411Z,12.92
2023-04-11T14:37:06.875Z,12.70
2023-04-11T14:42:29.286Z,12.66
2023-04-11T14:47:51.935Z,12.67
2023-04-11T14:53:14.383Z,12.68
2023-04-11T14:58:36.917Z,12.52
2023-04-11T15:04:00.200Z,12.32
2023-04-11T15:09:23.060Z,12.02
2023-04-11T15:14:45.710Z,11.63
2023-04-11T15:20:08.560Z,11.44
2023-04-11T15:25:32.955Z,11.19
2023-04-11T15:31:00.810Z,11.15
2023-04-11T15:36:23.523Z,10.89
2023-04-11T15:41:45.979Z,10.74
2023-04-11T15:47:09.257Z,10.57
2023-04-11T15:52:31.870Z,10.48
2023-04-11T15:57:55.440Z,10.33
2023-04-11T16:03:20.834Z,10.18
2023-04-11T16:08:44.200Z,9.76
2023-04-11T16:14:15.835Z,9.48
2023-04-11T16:19:49.396Z,9.18
2023-04-11T16:25:15.819Z,8.89
2023-04-11T16:30:38.175Z,8.74
2023-04-11T16:36:01.002Z,8.62
2023-04-11T16:41:23.954Z,8.44
2023-04-11T16:46:47.988Z,8.40
2023-04-11T16:52:11.795Z,8.31
2023-04-11T16:57:35.245Z,8.24
2023-04-11T17:02:57.909Z,8.17
2023-04-11T17:08:21.047Z,8.13
2023-04-11T17:13:45.421Z,8.11
2023-04-11T17:19:08.071Z,8.11
2023-04-11T17:24:30.307Z,8.10
2023-04-11T17:29:53.145Z,8.13
2023-04-11T17:35:15.999Z,8.04
2023-04-11T17:40:38.365Z,8.07
2023-04-11T17:46:02.627Z,8.01
2023-04-11T17:51:27.646Z,8.00
2023-04-11T17:56:51.147Z,8.00
2023-04-11T18:02:13.565Z,7.96
2023-04-11T18:07:37.683Z,7.92
2023-04-11T18:13:05.346Z,7.92
2023-04-11T18:18:27.573Z,7.89
2023-04-11T18:23:50.850Z,7.85
2023-04-11T18:29:13.098Z,7.78
2023-04-11T18:34:35.366Z,7.72
2023-04-11T18:39:57.666Z,7.71
2023-04-11T18:45:23.386Z,7.63
2023-04-11T18:50:48.280Z,7.42
2023-04-11T18:56:12.105Z,7.26
2023-04-11T19:01:34.619Z,7.14
2023-04-11T19:06:59.438Z,7.00
2023-04-11T19:12:22.555Z,6.87
2023-04-11T19:17:44.896Z,6.79
2023-04-11T19:23:07.704Z,6.67
2023-04-11T19:28:30.171Z,6.55
2023-04-11T19:33:54.170Z,6.48
2023-04-11T19:39:16.648Z,6.42
2023-04-11T19:44:40.103Z,6.40
2023-04-11T19:50:05.015Z,6.39
2023-04-11T19:55:28.221Z,6.33
2023-04-11T20:00:51.152Z,6.28
2023-04-11T20:06:27.634Z,6.35
2023-04-11T20:11:52.893Z,6.21
2023-04-11T20:17:16.746Z,6.21
2023-04-11T20:22:41.208Z,6.14
2023-04-11T20:28:06.282Z,6.10
2023-04-11T20:33:31.027Z,6.08
2023-04-11T20:38:56.194Z,6.09
2023-04-11T20:44:22.077Z,6.05
2023-04-11T20:55:30.780Z,6.15
2023-04-11T21:00:54.216Z,6.02
2023-04-11T21:06:16.529Z,5.96
2023-04-11T21:11:39.437Z,5.95
2023-04-11T21:17:02.073Z,5.97
2023-04-11T21:22:24.987Z,5.92
2023-04-11T21:27:47.391Z,5.92
2023-04-11T21:33:10.939Z,5.92
2023-04-11T21:38:34.369Z,5.87
2023-04-11T21:43:56.857Z,5.85
2023-04-11T21:49:19.645Z,5.85
2023-04-11T21:54:41.922Z,5.88
2023-04-11T22:00:05.074Z,5.87
2023-04-11T22:05:29.309Z,5.84
2023-04-11T22:10:52.770Z,5.81
2023-04-11T22:16:15.173Z,5.82
2023-04-11T22:21:39.842Z,5.73
2023-04-11T22:27:04.525Z,5.63
2023-04-11T22:32:27.498Z,5.50
2023-04-11T22:37:50.024Z,5.44
2023-04-11T22:43:13.061Z,5.36
2023-04-11T22:48:36.751Z,5.35
2023-04-11T22:53:59.479Z,5.30
2023-04-11T22:59:22.078Z,5.30
2023-04-11T23:04:45.432Z,5.25
2023-04-11T23:10:09.461Z,5.17
2023-04-11T23:15:32.105Z,5.17
2023-04-11T23:20:54.464Z,5.14
2023-04-11T23:26:19.200Z,5.12
2023-04-11T23:31:41.543Z,5.13
2023-04-11T23:37:04.020Z,5.15
2023-04-11T23:42:27.090Z,5.04
2023-04-11T23:47:49.530Z,5.00
2023-04-11T23:53:11.912Z,4.86
2023-04-11T23:58:34.207Z,4.59
